Time;durP1;ratioP1;P1;durP2;ratioP2;P2;SDS_P1;SDS_P2;PMS_P1;PMS_P2;Temp;Humidity;BMP_temperature;BMP_pressure;BME280_temperature;BME280_humidity;BME280_pressure;Samples;Min_cycle;Max_cycle;Signal;HPM_P1;HPM_P2
2022/11/18 00:00:30;;;;;;;4.35;1.13;;;;;;;4.87;100.00;99328.91;5029705;28;20029;-77
2022/11/18 00:02:56;;;;;;;0.55;0.52;;;;;;;4.63;100.00;99314.69;5014364;28;20125;-78
2022/11/18 00:05:22;;;;;;;0.50;0.50;;;;;;;4.45;100.00;99333.59;5008587;28;20034;-77
2022/11/18 00:07:47;;;;;;;0.65;0.65;;;;;;;4.23;100.00;99323.66;5008819;28;20274;-77
2022/11/18 00:10:16;;;;;;;3.22;0.93;;;;;;;3.92;100.00;99303.13;5057787;28;20120;-78
2022/11/18 00:15:25;;;;;;;1.13;1.02;;;;;;;3.73;100.00;99336.19;5011244;28;20076;-78
2022/11/18 00:17:51;;;;;;;0.80;0.80;;;;;;;3.71;100.00;99341.69;5028527;28;20059;-78
2022/11/18 00:20:16;;;;;;;1.92;0.73;;;;;;;3.60;100.00;99346.47;5006139;28;20053;-79
2022/11/18 00:22:42;;;;;;;1.10;0.63;;;;;;;3.43;100.00;99348.31;5024910;28;20034;-78
2022/11/18 00:25:08;;;;;;;0.90;0.88;;;;;;;3.19;100.00;99343.78;4995807;28;20048;-77
2022/11/18 00:27:33;;;;;;;0.73;0.73;;;;;;;3.06;100.00;99347.75;4995645;28;20486;-79
2022/11/18 00:29:59;;;;;;;1.25;1.15;;;;;;;2.88;100.00;99365.59;4994295;28;20053;-78
2022/11/18 00:32:25;;;;;;;2.13;1.77;;;;;;;2.74;100.00;99348.47;4997474;28;20041;-80
2022/11/18 00:34:50;;;;;;;2.15;0.93;;;;;;;2.85;100.00;99366.75;4992633;28;20340;-77
2022/11/18 00:37:16;;;;;;;0.80;0.80;;;;;;;3.11;100.00;99370.34;4994361;28;20057;-77
2022/11/18 00:39:42;;;;;;;2.63;1.33;;;;;;;3.05;100.00;99377.13;4988998;28;20040;-77
2022/11/18 00:44:51;;;;;;;1.35;0.80;;;;;;;3.04;100.00;99381.63;5024149;28;20025;-78
2022/11/18 00:47:17;;;;;;;0.60;0.60;;;;;;;3.07;100.00;99378.63;5024884;28;21111;-78
2022/11/18 00:49:42;;;;;;;2.20;0.60;;;;;;;2.84;100.00;99374.91;5007967;28;20488;-78
2022/11/18 00:52:08;;;;;;;1.58;1.25;;;;;;;2.86;100.00;99402.13;5025100;28;20526;-78
2022/11/18 00:54:34;;;;;;;1.33;1.23;;;;;;;2.70;100.00;99392.25;5023609;28;20033;-78
2022/11/18 00:56:59;;;;;;;0.80;0.80;;;;;;;2.80;100.00;99402.72;5044646;28;20506;-78
2022/11/18 00:59:25;;;;;;;0.80;0.80;;;;;;;2.62;100.00;99386.91;4995400;28;20068;-78
2022/11/18 01:01:51;;;;;;;0.88;0.88;;;;;;;2.64;100.00;99395.53;5021113;28;20929;-78
2022/11/18 01:04:19;;;;;;;0.60;0.60;;;;;;;2.66;100.00;99403.34;4998145;28;20052;-79
2022/11/18 01:06:45;;;;;;;0.65;0.65;;;;;;;2.75;100.00;99407.69;5011343;28;20495;-78
2022/11/18 01:09:10;;;;;;;0.40;0.40;;;;;;;2.89;100.00;99399.16;5028936;28;20025;-79
2022/11/18 01:14:23;;;;;;;0.95;0.90;;;;;;;3.13;100.00;99398.41;5008396;28;20128;-78
2022/11/18 01:16:50;;;;;;;0.40;0.40;;;;;;;2.95;100.00;99401.16;5059663;28;20044;-79
2022/11/18 01:19:17;;;;;;;2.17;1.27;;;;;;;2.92;100.00;99411.25;5011523;28;20079;-78
2022/11/18 01:21:42;;;;;;;2.08;1.35;;;;;;;2.87;100.00;99411.75;5003208;28;20480;-78
2022/11/18 01:24:08;;;;;;;0.45;0.45;;;;;;;2.89;100.00;99404.44;5008816;28;20086;-79
2022/11/18 01:26:34;;;;;;;0.32;0.32;;;;;;;3.02;100.00;99419.94;5027949;28;20074;-78
2022/11/18 01:28:59;;;;;;;0.63;0.63;;;;;;;3.04;100.00;99418.78;5012457;28;20053;-78
2022/11/18 01:31:25;;;;;;;0.95;0.95;;;;;;;3.11;100.00;99412.81;5027224;28;20072;-79
2022/11/18 01:33:51;;;;;;;0.60;0.60;;;;;;;3.10;100.00;99409.34;5011469;28;20193;-78
2022/11/18 01:36:17;;;;;;;0.40;0.40;;;;;;;3.09;100.00;99415.63;5005979;28;20030;-79
2022/11/18 01:38:43;;;;;;;3.72;1.27;;;;;;;2.88;100.00;99416.03;5027875;28;20499;-77
2022/11/18 01:41:11;;;;;;;0.40;0.40;;;;;;;2.58;100.00;99407.59;4991618;28;20037;-78
2022/11/18 01:43:53;;;;;;;0.40;0.40;;;;;;;2.45;100.00;99423.13;5025507;28;20037;-78
2022/11/18 01:46:20;;;;;;;0.50;0.50;;;;;;;2.22;100.00;99419.31;5005776;28;20095;-79
2022/11/18 01:48:49;;;;;;;0.40;0.40;;;;;;;2.20;100.00;99430.09;5028483;28;20373;-78
2022/11/18 01:51:17;;;;;;;0.52;0.52;;;;;;;2.26;100.00;99433.94;4994859;28;20270;-77
2022/11/18 01:53:51;;;;;;;0.40;0.40;;;;;;;2.15;100.00;99427.91;5026047;28;20060;-78
2022/11/18 01:56:22;;;;;;;0.43;0.43;;;;;;;1.95;100.00;99421.09;5009592;28;20045;-78
2022/11/18 01:58:55;;;;;;;0.50;0.50;;;;;;;1.88;100.00;99435.94;5025110;28;20025;-77
2022/11/18 02:01:20;;;;;;;0.40;0.40;;;;;;;1.81;100.00;99446.34;5010238;28;20107;-78
2022/11/18 02:03:49;;;;;;;0.40;0.40;;;;;;;1.71;100.00;99427.84;5024364;28;20755;-78
2022/11/18 02:06:15;;;;;;;0.88;0.88;;;;;;;1.77;100.00;99444.97;5011007;28;20048;-77
2022/11/18 02:08:41;;;;;;;0.40;0.40;;;;;;;1.88;100.00;99436.81;5000929;28;20033;-78
2022/11/18 02:11:57;;;;;;;0.40;0.40;;;;;;;1.81;100.00;99434.91;4988916;28;20025;-78
2022/11/18 02:14:01;;;;;;;0.40;0.40;;;;;;;1.78;100.00;99424.63;5012574;28;20041;-79
2022/11/18 02:16:39;;;;;;;0.50;0.50;;;;;;;1.86;100.00;99435.28;5026782;28;20040;-77
2022/11/18 02:19:22;;;;;;;0.40;0.40;;;;;;;1.78;100.00;99435.22;5033077;28;20033;-78
2022/11/18 02:21:56;;;;;;;;;;;;;;;1.83;100.00;99444.38;5010144;28;20073;-78
2022/11/18 02:24:42;;;;;;;0.70;0.70;;;;;;;1.95;100.00;99443.13;4993226;28;20008;-78
2022/11/18 02:27:10;;;;;;;0.40;0.40;;;;;;;2.20;100.00;99456.63;4988604;28;20543;-78
2022/11/18 02:29:39;;;;;;;0.30;0.30;;;;;;;2.55;100.00;99453.03;5025263;28;20336;-77
2022/11/18 02:32:25;;;;;;;0.40;0.40;;;;;;;2.88;100.00;99458.53;5027483;28;20498;-78
2022/11/18 02:35:22;;;;;;;0.40;0.40;;;;;;;2.97;100.00;99449.63;5007268;28;20404;-78
2022/11/18 02:38:01;;;;;;;0.40;0.40;;;;;;;3.06;100.00;99461.09;5021505;28;20075;-78
2022/11/18 02:40:36;;;;;;;0.40;0.40;;;;;;;2.94;100.00;99455.25;5007534;28;20056;-79
2022/11/18 02:43:09;;;;;;;0.40;0.40;;;;;;;2.60;100.00;99445.44;5008404;28;20039;-78
2022/11/18 02:45:36;;;;;;;0.40;0.40;;;;;;;2.49;100.00;99461.63;5007788;28;20034;-78
2022/11/18 02:48:06;;;;;;;0.40;0.40;;;;;;;2.33;100.00;99458.84;5005220;28;20048;-78
2022/11/18 02:50:33;;;;;;;0.45;0.45;;;;;;;2.23;100.00;99452.81;5009235;28;20029;-79
2022/11/18 02:53:02;;;;;;;0.30;0.30;;;;;;;2.30;100.00;99461.81;5016796;28;20041;-78
2022/11/18 02:55:30;;;;;;;0.50;0.50;;;;;;;2.36;100.00;99471.81;5009695;28;20037;-79
2022/11/18 02:57:56;;;;;;;0.40;0.40;;;;;;;2.22;100.00;99464.41;5025973;28;20025;-78
2022/11/18 03:00:22;;;;;;;0.40;0.40;;;;;;;2.06;100.00;99459.78;5025765;28;20096;-78
2022/11/18 03:02:48;;;;;;;0.40;0.40;;;;;;;1.92;100.00;99474.44;5027858;28;20033;-78
2022/11/18 03:05:34;;;;;;;0.40;0.40;;;;;;;1.72;100.00;99484.31;5009888;28;20045;-79
2022/11/18 03:08:07;;;;;;;0.40;0.40;;;;;;;1.58;100.00;99480.38;5008351;28;20041;-79
2022/11/18 03:11:07;;;;;;;0.40;0.40;;;;;;;1.67;100.00;99487.44;5020415;28;20483;-78
2022/11/18 03:13:47;;;;;;;0.40;0.40;;;;;;;1.50;100.00;99475.00;4996902;28;20121;-78
2022/11/18 03:16:18;;;;;;;0.40;0.40;;;;;;;1.42;100.00;99477.56;5023971;28;20029;-77
2022/11/18 03:19:08;;;;;;;0.60;0.60;;;;;;;1.51;100.00;99497.88;5005564;28;20030;-78
2022/11/18 03:21:41;;;;;;;0.40;0.40;;;;;;;1.63;100.00;99499.31;5010429;28;20040;-78
2022/11/18 03:24:31;;;;;;;0.40;0.40;;;;;;;1.83;100.00;99507.97;4992613;28;20030;-78
2022/11/18 03:27:30;;;;;;;0.40;0.40;;;;;;;1.85;100.00;99505.16;5053289;28;20030;-77
2022/11/18 03:30:02;;;;;;;0.40;0.40;;;;;;;1.95;100.00;99506.75;4986596;28;20514;-77
2022/11/18 03:32:30;;;;;;;0.45;0.45;;;;;;;1.98;100.00;99505.63;4998610;28;20049;-77
2022/11/18 03:35:00;;;;;;;0.40;0.40;;;;;;;2.01;100.00;99509.78;4995144;28;20496;-77
2022/11/18 03:37:25;;;;;;;0.40;0.40;;;;;;;2.06;100.00;99516.31;5009260;28;20050;-77
2022/11/18 03:39:54;;;;;;;0.40;0.40;;;;;;;2.14;100.00;99519.06;4998027;28;20400;-79
2022/11/18 03:42:43;;;;;;;0.40;0.40;;;;;;;2.20;100.00;99515.78;4998304;28;20048;-76
2022/11/18 03:45:12;;;;;;;0.45;0.45;;;;;;;2.26;100.00;99521.47;5010959;28;20128;-78
2022/11/18 03:47:40;;;;;;;0.40;0.40;;;;;;;2.35;100.00;99523.19;5036520;28;20037;-78
2022/11/18 03:50:20;;;;;;;0.40;0.40;;;;;;;2.39;100.00;99492.72;5012113;28;20072;-78
2022/11/18 03:52:48;;;;;;;0.40;0.40;;;;;;;2.69;100.00;99533.91;5003709;28;20048;-77
2022/11/18 03:55:18;;;;;;;0.40;0.40;;;;;;;2.75;100.00;99533.28;4996276;28;20060;-77
2022/11/18 03:57:58;;;;;;;0.40;0.40;;;;;;;2.64;100.00;99529.03;5019422;28;20111;-77
2022/11/18 04:00:25;;;;;;;0.40;0.40;;;;;;;2.49;100.00;99519.16;5012502;28;20048;-78
2022/11/18 04:02:51;;;;;;;0.40;0.40;;;;;;;2.33;100.00;99519.84;5011938;28;20021;-78
2022/11/18 04:05:18;;;;;;;0.40;0.40;;;;;;;2.24;100.00;99534.88;5029939;28;20034;-79
2022/11/18 04:08:02;;;;;;;0.40;0.40;;;;;;;2.13;100.00;99533.28;5029794;28;20380;-78
2022/11/18 04:10:45;;;;;;;0.40;0.40;;;;;;;2.20;100.00;99538.81;5023610;28;20041;-77
2022/11/18 04:13:16;;;;;;;0.40;0.40;;;;;;;2.14;100.00;99542.06;5009474;28;20049;-79
2022/11/18 04:15:42;;;;;;;0.47;0.47;;;;;;;2.02;100.00;99544.13;5013660;28;20033;-78
2022/11/18 04:18:08;;;;;;;0.40;0.40;;;;;;;1.95;100.00;99551.00;5007770;28;20038;-78
2022/11/18 04:20:36;;;;;;;0.40;0.40;;;;;;;1.86;100.00;99533.34;5009129;28;20377;-78
2022/11/18 04:23:03;;;;;;;0.40;0.40;;;;;;;2.00;100.00;99564.63;5009453;28;20108;-79
2022/11/18 04:25:28;;;;;;;0.40;0.40;;;;;;;2.05;100.00;99559.72;5026847;28;20885;-77
2022/11/18 04:27:54;;;;;;;0.40;0.40;;;;;;;2.20;100.00;99570.66;5024715;28;20071;-78
2022/11/18 04:30:20;;;;;;;0.50;0.50;;;;;;;2.51;100.00;99565.75;5009457;28;20068;-78
2022/11/18 04:32:46;;;;;;;0.40;0.40;;;;;;;2.72;100.00;99548.69;4996385;28;20033;-79
2022/11/18 04:35:13;;;;;;;0.40;0.40;;;;;;;3.03;100.00;99578.28;5028485;28;20107;-78
2022/11/18 04:37:38;;;;;;;0.40;0.40;;;;;;;3.02;100.00;99589.91;5012235;28;20438;-78
2022/11/18 04:40:04;;;;;;;1.50;0.52;;;;;;;3.31;100.00;99576.28;5030030;28;20037;-79
2022/11/18 04:42:30;;;;;;;0.40;0.40;;;;;;;3.71;100.00;99574.81;5064370;28;20041;-78
2022/11/18 04:44:56;;;;;;;0.40;0.40;;;;;;;3.89;100.00;99572.88;4992305;28;20072;-77
2022/11/18 04:47:21;;;;;;;0.40;0.40;;;;;;;3.96;100.00;99579.19;5057356;28;20034;-77
2022/11/18 04:49:47;;;;;;;0.40;0.40;;;;;;;3.94;100.00;99583.84;5046045;28;20040;-78
2022/11/18 04:52:13;;;;;;;0.40;0.40;;;;;;;3.90;100.00;99587.81;5031113;28;20021;-78
2022/11/18 04:54:39;;;;;;;0.40;0.40;;;;;;;3.79;100.00;99592.63;4995349;28;20034;-77
2022/11/18 04:57:04;;;;;;;0.40;0.40;;;;;;;3.72;100.00;99603.88;5029195;28;20060;-77
2022/11/18 04:59:30;;;;;;;0.40;0.40;;;;;;;3.82;100.00;99613.56;5025658;28;20029;-77
2022/11/18 05:01:56;;;;;;;0.32;0.32;;;;;;;3.97;100.00;99609.28;5004636;28;20030;-78
2022/11/18 05:04:29;;;;;;;0.35;0.35;;;;;;;4.10;100.00;99598.16;5010692;28;20080;-78
2022/11/18 05:06:54;;;;;;;0.40;0.40;;;;;;;4.44;100.00;99616.69;5014148;28;20493;-78
2022/11/18 05:09:21;;;;;;;0.32;0.32;;;;;;;4.53;100.00;99612.25;5013111;28;20033;-77
2022/11/18 05:14:31;;;;;;;0.43;0.43;;;;;;;4.70;100.00;99618.41;5013734;28;20263;-78
2022/11/18 05:16:58;;;;;;;0.40;0.40;;;;;;;4.81;100.00;99620.72;5011313;28;20249;-79
2022/11/18 05:19:24;;;;;;;0.32;0.32;;;;;;;4.87;100.00;99624.53;5010410;28;20078;-78
2022/11/18 05:21:50;;;;;;;0.50;0.50;;;;;;;4.70;100.00;99594.44;5024385;28;20037;-78
2022/11/18 05:24:16;;;;;;;0.30;0.30;;;;;;;4.59;100.00;99601.75;5012001;28;20037;-77
2022/11/18 05:26:42;;;;;;;0.40;0.40;;;;;;;4.44;100.00;99618.53;4992339;28;20375;-77
2022/11/18 05:29:08;;;;;;;0.40;0.40;;;;;;;4.40;100.00;99631.34;5027057;28;20037;-78
2022/11/18 05:31:34;;;;;;;0.40;0.40;;;;;;;4.27;100.00;99631.00;5012280;28;20044;-77
2022/11/18 05:34:00;;;;;;;0.40;0.40;;;;;;;4.00;100.00;99627.59;5021429;28;20037;-80
2022/11/18 05:36:25;;;;;;;0.32;0.32;;;;;;;3.86;100.00;99636.16;5005678;28;20045;-77
2022/11/18 05:38:51;;;;;;;0.40;0.40;;;;;;;3.74;100.00;99627.66;5021995;28;20399;-78
2022/11/18 05:44:02;;;;;;;0.40;0.40;;;;;;;3.81;100.00;99633.16;5025245;28;20479;-77
2022/11/18 05:46:28;;;;;;;0.40;0.40;;;;;;;3.87;100.00;99638.66;5015715;28;20124;-78
2022/11/18 05:48:54;;;;;;;0.40;0.40;;;;;;;3.74;100.00;99636.44;5005667;28;20034;-77
2022/11/18 05:51:20;;;;;;;0.40;0.40;;;;;;;3.48;100.00;99622.38;5024317;28;20489;-78
2022/11/18 05:53:48;;;;;;;0.40;0.40;;;;;;;3.29;100.00;99650.00;5010151;28;20036;-77
2022/11/18 05:56:24;;;;;;;0.40;0.40;;;;;;;2.96;100.00;99638.28;4994902;28;20034;-77
2022/11/18 05:58:50;;;;;;;0.40;0.40;;;;;;;2.86;100.00;99641.88;5023246;28;20506;-77
2022/11/18 06:01:20;;;;;;;0.40;0.40;;;;;;;2.74;100.00;99647.56;4992957;28;20061;-77
2022/11/18 06:03:47;;;;;;;0.40;0.40;;;;;;;2.55;100.00;99640.59;5005020;28;20037;-77
2022/11/18 06:06:15;;;;;;;0.40;0.40;;;;;;;2.53;100.00;99664.63;4991295;28;20033;-78
2022/11/18 06:08:56;;;;;;;0.40;0.40;;;;;;;2.28;100.00;99634.38;4990294;28;20201;-77
2022/11/18 06:11:25;;;;;;;0.50;0.50;;;;;;;2.36;100.00;99665.47;5026425;28;20036;-77
2022/11/18 06:14:06;;;;;;;0.40;0.40;;;;;;;2.37;100.00;99670.59;5022211;28;20128;-77
2022/11/18 06:16:37;;;;;;;0.40;0.40;;;;;;;2.24;100.00;99654.22;5006057;28;20037;-81
2022/11/18 06:19:32;;;;;;;;;;;;;;;;;;;;;
2022/11/18 06:22:30;;;;;;;0.50;0.50;;;;;;;2.10;100.00;99689.22;5004119;28;20131;-77
2022/11/18 06:25:42;;;;;;;0.40;0.40;;;;;;;1.91;100.00;99667.09;5019401;28;20056;-77
2022/11/18 06:28:24;;;;;;;0.40;0.40;;;;;;;2.02;100.00;99689.94;5018274;28;20049;-78
2022/11/18 06:31:20;;;;;;;0.40;0.40;;;;;;;1.54;100.00;99641.47;5036963;28;20114;-79
2022/11/18 06:33:55;;;;;;;0.40;0.40;;;;;;;1.45;100.00;99655.56;5002766;28;20069;-77
2022/11/18 06:36:21;;;;;;;0.40;0.40;;;;;;;1.51;100.00;99691.25;4988449;28;20498;-77
2022/11/18 06:38:48;;;;;;;0.40;0.40;;;;;;;1.44;100.00;99698.94;5017081;28;20033;-77
2022/11/18 06:41:14;;;;;;;0.40;0.40;;;;;;;1.53;100.00;99691.94;4987127;28;20029;-78
2022/11/18 06:43:42;;;;;;;0.40;0.40;;;;;;;1.80;100.00;99709.72;5003900;28;20388;-78
2022/11/18 06:48:59;;;;;;;0.40;0.40;;;;;;;2.35;100.00;99714.19;5021876;28;20594;-77
2022/11/18 06:51:25;;;;;;;0.40;0.40;;;;;;;2.57;100.00;99713.78;5026015;28;20387;-77
2022/11/18 06:53:51;;;;;;;0.40;0.40;;;;;;;2.64;100.00;99703.38;4989365;28;20030;-77
2022/11/18 06:56:18;;;;;;;0.40;0.40;;;;;;;2.73;100.00;99704.31;5018109;28;20021;-78
2022/11/18 06:58:44;;;;;;;0.40;0.40;;;;;;;2.80;100.00;99710.66;5018454;28;20557;-78
2022/11/18 07:01:13;;;;;;;0.40;0.40;;;;;;;2.75;100.00;99705.84;5033034;28;20083;-77
2022/11/18 07:03:39;;;;;;;0.40;0.40;;;;;;;2.60;100.00;99712.66;4991144;28;20099;-77
2022/11/18 07:06:06;;;;;;;0.40;0.40;;;;;;;2.29;100.00;99720.09;4992271;28;20709;-78
2022/11/18 07:08:34;;;;;;;0.40;0.40;;;;;;;2.04;100.00;99721.59;5005617;28;20091;-77
2022/11/18 07:11:00;;;;;;;0.40;0.40;;;;;;;1.84;100.00;99713.72;5009261;28;20026;-80
2022/11/18 07:13:26;;;;;;;0.40;0.40;;;;;;;1.73;100.00;99725.34;5026233;28;20116;-78
2022/11/18 07:15:51;;;;;;;0.40;0.40;;;;;;;1.61;100.00;99731.78;4992464;28;20048;-77
2022/11/18 07:18:17;;;;;;;0.38;0.38;;;;;;;1.48;100.00;99744.50;4989855;28;20034;-78
2022/11/18 07:20:42;;;;;;;0.40;0.40;;;;;;;1.31;100.00;99736.31;4994443;28;20080;-78
2022/11/18 07:23:08;;;;;;;0.40;0.40;;;;;;;1.26;100.00;99743.84;5038607;28;20045;-79
2022/11/18 07:25:34;;;;;;;0.40;0.40;;;;;;;1.12;100.00;99731.03;4990181;28;20043;-77
2022/11/18 07:27:59;;;;;;;0.40;0.40;;;;;;;1.19;100.00;99740.09;5023216;28;20040;-77
2022/11/18 07:30:25;;;;;;;0.43;0.43;;;;;;;1.18;100.00;99727.81;5005028;28;20040;-78
2022/11/18 07:32:50;;;;;;;0.43;0.43;;;;;;;1.22;100.00;99733.69;4990289;28;20553;-77
2022/11/18 07:35:17;;;;;;;0.45;0.45;;;;;;;1.06;100.00;99747.50;4991945;28;20041;-77
2022/11/18 07:37:43;;;;;;;0.40;0.40;;;;;;;0.90;100.00;99747.19;5008467;28;20083;-78
2022/11/18 07:40:09;;;;;;;0.40;0.40;;;;;;;0.93;100.00;99746.91;5019335;28;20552;-77
2022/11/18 07:42:41;;;;;;;0.40;0.40;;;;;;;0.92;100.00;99756.66;5021868;28;20087;-77
2022/11/18 07:45:10;;;;;;;0.40;0.40;;;;;;;0.91;100.00;99762.94;5002723;28;20052;-77
2022/11/18 07:47:36;;;;;;;0.50;0.50;;;;;;;0.74;100.00;99764.47;5001652;28;20029;-77
2022/11/18 07:50:04;;;;;;;0.40;0.40;;;;;;;0.51;100.00;99758.56;5016772;28;20394;-77
2022/11/18 07:52:29;;;;;;;0.50;0.50;;;;;;;0.59;100.00;99774.59;5021515;28;20037;-77
2022/11/18 07:54:55;;;;;;;0.45;0.45;;;;;;;0.61;100.00;99785.06;5020137;28;20036;-76
2022/11/18 07:57:20;;;;;;;0.40;0.40;;;;;;;0.68;100.00;99785.34;4999760;28;21933;-77
2022/11/18 07:59:46;;;;;;;0.50;0.50;;;;;;;0.66;100.00;99774.88;5002648;28;20040;-77
2022/11/18 08:02:12;;;;;;;0.40;0.40;;;;;;;0.80;100.00;99792.19;4987697;28;20483;-78
2022/11/18 08:04:38;;;;;;;0.40;0.40;;;;;;;0.94;100.00;99790.94;5057611;28;20124;-77
2022/11/18 08:07:04;;;;;;;0.40;0.40;;;;;;;1.18;100.00;99801.97;4988087;28;20063;-78
2022/11/18 08:09:29;;;;;;;0.40;0.40;;;;;;;1.25;100.00;99800.44;5012172;28;20150;-78
2022/11/18 08:11:55;;;;;;;0.40;0.40;;;;;;;1.34;100.00;99803.22;5005478;28;20037;-78
2022/11/18 08:14:22;;;;;;;0.40;0.40;;;;;;;1.34;100.00;99804.06;5028494;28;20036;-77
2022/11/18 08:16:49;;;;;;;0.40;0.40;;;;;;;1.24;100.00;99822.56;4990326;28;20052;-77
2022/11/18 08:19:14;;;;;;;0.40;0.40;;;;;;;1.27;100.00;99803.78;5024520;28;20056;-77
2022/11/18 08:21:40;;;;;;;0.50;0.50;;;;;;;1.39;100.00;99816.88;5022497;28;20037;-76
2022/11/18 08:24:08;;;;;;;0.50;0.50;;;;;;;1.61;100.00;99832.47;4995922;28;20183;-76
2022/11/18 08:26:33;;;;;;;0.40;0.40;;;;;;;2.02;100.00;99829.63;5007217;28;20021;-76
2022/11/18 08:28:59;;;;;;;0.50;0.50;;;;;;;2.50;100.00;99837.41;5025989;28;20486;-77
2022/11/18 08:31:27;;;;;;;0.50;0.50;;;;;;;2.74;100.00;99833.38;5026509;28;20026;-76
2022/11/18 08:33:57;;;;;;;0.50;0.50;;;;;;;2.85;100.00;99826.03;5007432;28;20037;-75
2022/11/18 08:36:25;;;;;;;0.40;0.40;;;;;;;2.78;100.00;99813.50;4996789;28;20077;-77
2022/11/18 08:38:51;;;;;;;0.40;0.40;;;;;;;2.84;100.00;99832.34;5020787;28;20064;-76
2022/11/18 08:41:20;;;;;;;0.40;0.40;;;;;;;2.82;100.00;99852.06;5017918;28;20034;-78
2022/11/18 08:43:46;;;;;;;0.45;0.45;;;;;;;2.82;100.00;99854.72;4985242;28;20419;-79
2022/11/18 08:46:11;;;;;;;0.50;0.50;;;;;;;2.75;100.00;99846.53;5022051;28;20046;-79
2022/11/18 08:48:37;;;;;;;0.43;0.43;;;;;;;2.84;100.00;99856.25;5019863;28;20087;-78
2022/11/18 08:51:03;;;;;;;0.40;0.40;;;;;;;2.96;100.00;99858.69;5023265;28;20037;-78
2022/11/18 08:53:28;;;;;;;0.40;0.40;;;;;;;3.14;100.00;99856.06;4985421;28;20068;-78
2022/11/18 08:55:58;;;;;;;0.50;0.50;;;;;;;3.39;100.00;99867.78;5005896;28;20041;-80
2022/11/18 08:58:24;;;;;;;0.40;0.40;;;;;;;3.45;100.00;99851.22;5017653;28;20167;-78
2022/11/18 09:00:50;;;;;;;0.40;0.40;;;;;;;3.50;100.00;99857.75;4998853;28;20108;-78
2022/11/18 09:03:15;;;;;;;0.40;0.40;;;;;;;3.61;100.00;99874.47;5001267;28;20565;-78
2022/11/18 09:05:41;;;;;;;0.50;0.50;;;;;;;3.63;100.00;99883.97;5013675;28;20136;-78
2022/11/18 09:08:07;;;;;;;0.43;0.43;;;;;;;3.78;100.00;99886.91;4989087;28;20117;-79
2022/11/18 09:10:33;;;;;;;0.50;0.50;;;;;;;3.70;100.00;99876.19;5036095;28;20121;-76
2022/11/18 09:12:59;;;;;;;0.40;0.40;;;;;;;3.68;100.00;99880.84;5004169;28;20029;-78
2022/11/18 09:15:25;;;;;;;0.40;0.40;;;;;;;3.66;100.00;99886.31;5062312;28;20040;-77
2022/11/18 09:17:53;;;;;;;0.50;0.50;;;;;;;3.59;100.00;99879.91;5007641;28;20025;-79
2022/11/18 09:20:19;;;;;;;0.40;0.40;;;;;;;3.66;100.00;99881.00;5022424;28;20479;-80
2022/11/18 09:22:44;;;;;;;0.50;0.50;;;;;;;3.62;100.00;99876.94;5036233;28;20095;-76
2022/11/18 09:25:10;;;;;;;0.43;0.43;;;;;;;3.47;100.00;99870.53;4996934;28;20029;-78
2022/11/18 09:27:36;;;;;;;0.40;0.40;;;;;;;3.27;100.00;99888.41;4993775;28;20047;-75
2022/11/18 09:30:02;;;;;;;0.40;0.40;;;;;;;2.99;100.00;99871.66;5028571;28;20033;-79
2022/11/18 09:32:27;;;;;;;0.40;0.40;;;;;;;3.05;100.00;99887.03;5039504;28;20060;-78
2022/11/18 09:34:53;;;;;;;0.50;0.50;;;;;;;4.10;100.00;99901.44;4991678;28;20065;-82
2022/11/18 09:37:19;;;;;;;0.50;0.50;;;;;;;5.49;100.00;99884.25;5008568;28;20091;-85
2022/11/18 09:39:44;;;;;;;0.60;0.60;;;;;;;6.49;100.00;99889.44;4998010;28;20041;-85
2022/11/18 09:42:38;;;;;;;0.55;0.55;;;;;;;7.36;100.00;99891.25;5040506;28;20030;-85
2022/11/18 09:45:19;;;;;;;0.52;0.52;;;;;;;7.72;100.00;99880.78;5030120;28;20037;-83
2022/11/18 09:47:44;;;;;;;0.60;0.60;;;;;;;8.83;100.00;99889.97;5030785;28;20033;-84
2022/11/18 09:50:13;;;;;;;0.60;0.60;;;;;;;10.09;94.45;99893.19;5015384;28;20494;-86
2022/11/18 09:52:48;;;;;;;0.60;0.60;;;;;;;11.14;90.57;99902.16;5013044;28;20028;-84
2022/11/18 09:55:17;;;;;;;0.60;0.60;;;;;;;12.03;88.37;99891.22;4996309;28;20056;-85
2022/11/18 09:57:46;;;;;;;0.60;0.60;;;;;;;12.70;85.39;99902.81;5014026;28;20041;-85
2022/11/18 10:00:21;;;;;;;0.60;0.60;;;;;;;13.25;82.88;99901.59;5049756;28;20026;-84
2022/11/18 10:03:22;;;;;;;0.60;0.60;;;;;;;13.86;83.61;99909.16;5010521;28;20060;-84
2022/11/18 10:05:53;;;;;;;0.60;0.60;;;;;;;14.50;83.72;99908.06;5028774;28;20033;-84
2022/11/18 10:08:36;;;;;;;0.60;0.60;;;;;;;14.76;78.87;99889.91;5031312;28;20060;-84
2022/11/18 10:11:19;;;;;;;0.63;0.63;;;;;;;15.23;78.10;99917.28;5004159;28;20505;-85
2022/11/18 10:14:09;;;;;;;0.50;0.50;;;;;;;15.42;77.26;99919.97;4995092;28;20579;-85
2022/11/18 10:17:00;;;;;;;0.50;0.50;;;;;;;15.07;80.94;99920.63;5031473;28;20076;-82
2022/11/18 10:19:55;;;;;;;0.60;0.60;;;;;;;14.49;78.95;99913.69;5012427;28;20057;-85
2022/11/18 10:22:31;;;;;;;0.50;0.50;;;;;;;14.10;81.32;99928.34;5025458;28;20045;-82
2022/11/18 10:24:59;;;;;;;0.60;0.60;;;;;;;14.46;81.52;99931.16;5030601;28;20055;-81
2022/11/18 10:27:39;;;;;;;0.50;0.50;;;;;;;14.75;82.73;99928.88;5022748;28;20037;-83
2022/11/18 10:30:12;;;;;;;0.50;0.50;;;;;;;14.77;82.08;99929.47;5029182;28;20563;-82
2022/11/18 10:32:57;;;;;;;0.50;0.50;;;;;;;13.85;84.52;99934.53;5000594;28;20033;-82
2022/11/18 10:35:29;;;;;;;0.50;0.50;;;;;;;13.82;84.88;99941.22;5008087;28;20064;-83
2022/11/18 10:38:21;;;;;;;0.60;0.60;;;;;;;14.56;81.79;99943.41;5013119;28;20044;-82
2022/11/18 10:40:59;;;;;;;0.50;0.50;;;;;;;14.50;81.40;99932.41;5015252;28;20092;-86
2022/11/18 10:43:51;;;;;;;0.70;0.70;;;;;;;14.82;80.53;99937.75;4995580;28;20045;-84
2022/11/18 10:46:21;;;;;;;0.68;0.68;;;;;;;15.28;79.13;99949.13;5026713;28;20448;-87
2022/11/18 10:48:46;;;;;;;0.60;0.60;;;;;;;15.37;79.35;99951.31;5005955;28;20124;-84
2022/11/18 10:51:23;;;;;;;0.50;0.50;;;;;;;15.21;78.56;99943.75;5009203;28;20124;-85
2022/11/18 10:53:49;;;;;;;0.50;0.50;;;;;;;14.33;82.34;99957.50;5023505;28;20108;-85
2022/11/18 10:56:15;;;;;;;0.40;0.40;;;;;;;12.71;88.37;99955.69;5030023;28;20587;-85
2022/11/18 10:58:48;;;;;;;0.50;0.50;;;;;;;12.79;89.80;99941.16;5019742;28;20037;-86
2022/11/18 11:01:25;;;;;;;0.52;0.52;;;;;;;12.73;92.43;99969.00;5025049;28;20040;-84
2022/11/18 11:04:12;;;;;;;0.50;0.50;;;;;;;12.73;91.05;99966.28;4990503;28;20029;-83
2022/11/18 11:06:38;;;;;;;0.82;0.82;;;;;;;12.42;92.30;99958.84;5028596;28;20033;-84
2022/11/18 11:09:13;;;;;;;1.02;0.65;;;;;;;12.31;93.75;99969.19;5013991;28;20037;-84
2022/11/18 11:11:42;;;;;;;0.80;0.80;;;;;;;12.40;93.56;99955.50;5027218;28;20033;-85
2022/11/18 11:14:19;;;;;;;1.10;1.00;;;;;;;13.28;90.19;99972.19;5009015;28;20103;-84
2022/11/18 11:16:55;;;;;;;0.88;0.88;;;;;;;12.96;93.14;99979.31;5055485;28;20514;-83
2022/11/18 11:19:24;;;;;;;2.63;0.95;;;;;;;12.28;93.84;99955.31;5025108;28;20037;-83
2022/11/18 11:21:50;;;;;;;3.72;1.00;;;;;;;11.88;96.68;99977.63;5012214;28;20083;-90
2022/11/18 11:24:15;;;;;;;2.05;1.20;;;;;;;12.65;92.91;99955.69;4994917;28;20033;-86
2022/11/18 11:27:09;;;;;;;1.27;0.90;;;;;;;13.63;87.99;99977.28;5045922;28;20025;-84
2022/11/18 11:29:59;;;;;;;1.48;0.90;;;;;;;12.89;92.54;99987.44;5027469;28;20043;-83
2022/11/18 11:32:32;;;;;;;2.13;1.48;;;;;;;13.43;90.40;99973.81;5028859;28;20045;-85
2022/11/18 11:35:19;;;;;;;4.03;1.60;;;;;;;14.10;88.82;99998.63;5030276;28;20387;-84
2022/11/18 11:37:54;;;;;;;5.25;1.30;;;;;;;15.22;84.14;99994.19;4989399;28;20041;-85
2022/11/18 11:41:21;;;;;;;2.50;1.08;;;;;;;15.48;82.03;99993.06;5016685;28;20090;-85
2022/11/18 11:44:06;;;;;;;2.97;1.50;;;;;;;15.44;82.40;99985.59;4996687;28;20064;-85
2022/11/18 11:50:12;;;;;;;2.88;1.00;;;;;;;14.42;90.05;99994.03;5024408;28;20033;-85
2022/11/18 11:52:45;;;;;;;3.83;1.20;;;;;;;13.04;94.49;99995.28;5031856;28;20037;-86
2022/11/18 11:55:11;;;;;;;;;;;;;;;12.13;99.89;100013.97;5016456;28;20123;-87
2022/11/18 11:57:53;;;;;;;4.05;1.00;;;;;;;11.85;100.00;99999.56;5032863;28;20012;-85
2022/11/18 12:00:19;;;;;;;5.65;1.30;;;;;;;13.31;100.00;100017.69;5027006;28;20033;-85
2022/11/18 12:03:09;;;;;;;2.78;1.80;;;;;;;14.46;97.31;100012.31;5014228;28;20044;-85
2022/11/18 12:05:38;;;;;;;2.45;1.52;;;;;;;15.29;93.58;100011.16;5033321;28;20033;-86
2022/11/18 12:08:20;;;;;;;5.38;1.60;;;;;;;16.62;88.34;100017.56;5035650;28;20026;-89
2022/11/18 12:11:07;;;;;;;3.42;1.20;;;;;;;17.58;84.12;100020.84;5037425;28;20032;-88